Time;durP1;ratioP1;P1;durP2;ratioP2;P2;SDS_P1;SDS_P2;PMS_P1;PMS_P2;Temp;Humidity;BMP_temperature;BMP_pressure;BME280_temperature;BME280_humidity;BME280_pressure;Samples;Min_cycle;Max_cycle;Signal;HPM_P1;HPM_P2
2022/04/30 00:00:13;;;;;;;9.10;8.20;;;11.60;54.10;;;10.43;58.62;98456.06;5081926;28;20547;-76
2022/04/30 00:02:40;;;;;;;8.37;7.57;;;11.60;54.30;;;10.34;60.00;98460.78;5085023;28;20462;-76
2022/04/30 00:05:10;;;;;;;7.47;6.77;;;11.50;54.50;;;10.30;59.50;98450.59;5094762;28;20460;-78
2022/04/30 00:07:38;;;;;;;9.33;8.43;;;11.40;54.40;;;10.27;59.87;98454.53;5087533;28;20467;-76
2022/04/30 00:10:06;;;;;;;8.77;7.70;;;11.40;54.80;;;10.24;60.15;98448.72;5071451;28;20476;-78
2022/04/30 00:12:33;;;;;;;9.03;8.23;;;11.30;54.70;;;10.31;59.69;98445.00;5076108;28;20966;-73
2022/04/30 00:15:01;;;;;;;12.30;8.53;;;11.40;54.80;;;10.28;60.41;98447.25;5074159;28;20455;-79
2022/04/30 00:17:27;;;;;;;7.70;7.10;;;11.40;54.90;;;10.20;60.29;98446.41;5077362;28;20831;-77
2022/04/30 00:19:54;;;;;;;9.17;8.33;;;11.30;55.00;;;10.21;60.15;98441.84;5081005;28;20654;-79
2022/04/30 00:22:23;;;;;;;9.03;8.20;;;11.30;55.20;;;10.20;60.50;98441.00;5082198;28;20471;-80
2022/04/30 00:24:50;;;;;;;9.63;8.10;;;11.30;55.40;;;10.08;60.77;98439.91;5073854;28;20471;-77
2022/04/30 00:27:17;;;;;;;9.67;8.67;;;11.20;55.60;;;10.00;61.02;98440.09;5080632;28;20538;-82
2022/04/30 00:29:46;;;;;;;9.53;8.60;;;11.20;55.80;;;10.04;61.33;98441.34;5078672;28;20456;-77
2022/04/30 00:32:15;;;;;;;9.33;8.50;;;11.10;56.10;;;9.86;62.55;98440.03;5084839;28;20477;-76
2022/04/30 00:34:42;;;;;;;8.73;7.90;;;11.00;56.30;;;9.80;62.98;98440.00;5076193;28;20445;-80
2022/04/30 00:37:09;;;;;;;9.47;8.63;;;10.90;56.70;;;9.83;62.57;98432.34;5081042;28;20470;-80
2022/04/30 00:39:37;;;;;;;9.83;8.83;;;10.90;57.00;;;9.90;62.45;98437.78;5086984;28;20452;-79
2022/04/30 00:42:05;;;;;;;10.30;9.37;;;11.00;57.30;;;9.96;62.01;98439.66;5074763;28;21060;-78
2022/04/30 00:44:32;;;;;;;11.37;8.60;;;11.00;57.20;;;9.82;62.48;98433.38;5078113;28;21627;-81
2022/04/30 00:46:59;;;;;;;10.30;9.40;;;11.00;57.40;;;9.49;63.02;98380.91;5071417;28;20444;-79
2022/04/30 00:49:26;;;;;;;9.63;8.83;;;10.90;57.40;;;9.87;62.57;98430.09;5103770;27;21044;-78
2022/04/30 00:51:55;;;;;;;10.10;9.30;;;11.00;57.60;;;9.74;63.95;98436.22;5078981;28;20543;-78
2022/04/30 00:54:26;;;;;;;9.53;8.60;;;10.90;57.90;;;9.62;65.40;98434.09;5074407;28;20542;-73
2022/04/30 00:57:00;;;;;;;10.53;9.50;;;10.70;58.60;;;9.62;63.42;98434.09;5083879;28;20468;-78
2022/04/30 00:59:28;;;;;;;10.50;9.60;;;10.70;58.50;;;9.48;64.45;98435.88;5078903;28;20455;-78
2022/04/30 01:01:59;;;;;;;10.93;9.70;;;10.60;58.70;;;9.42;64.92;98439.38;5079129;28;21013;-81
2022/04/30 01:04:26;;;;;;;11.07;9.27;;;10.50;59.10;;;9.24;65.12;98431.78;5076054;28;20459;-78
2022/04/30 01:06:57;;;;;;;10.30;9.40;;;10.40;59.30;;;9.30;64.58;98431.00;5079069;28;20479;-78
2022/04/30 01:09:28;;;;;;;10.47;9.50;;;10.40;59.80;;;9.17;65.56;98433.59;5079171;28;21063;-72
2022/04/30 01:11:58;;;;;;;10.80;9.70;;;10.30;60.00;;;9.18;66.10;98425.31;5090531;28;20448;-79
2022/04/30 01:14:30;;;;;;;9.73;8.87;;;10.20;60.80;;;9.30;65.84;98419.41;5069936;28;20534;-75
2022/04/30 01:16:58;;;;;;;9.40;8.70;;;10.30;61.00;;;9.23;65.73;98432.81;5077649;28;20455;-79
2022/04/30 01:19:27;;;;;;;10.37;9.47;;;10.30;60.80;;;9.27;65.06;98420.59;5077065;28;20454;-75
2022/04/30 01:21:59;;;;;;;9.93;9.03;;;10.30;61.40;;;9.34;64.10;98416.09;5081526;28;20458;-78
2022/04/30 01:24:30;;;;;;;9.93;9.03;;;10.40;60.00;;;9.38;63.98;98421.91;5075665;28;20462;-78
2022/04/30 01:27:00;;;;;;;9.77;8.80;;;10.50;60.00;;;9.60;63.62;98414.56;5076478;28;20863;-81
2022/04/30 01:29:32;;;;;;;10.53;9.63;;;10.60;60.10;;;9.66;63.83;98412.13;5081296;28;20563;-77
2022/04/30 01:37:36;;;;;;;14.03;9.50;;;10.70;60.10;;;9.57;64.12;98408.78;5084058;28;20500;-77
2022/04/30 01:40:06;;;;;;;9.80;9.00;;;10.70;60.10;;;9.72;63.51;98401.38;5080021;28;20451;-76
2022/04/30 01:42:38;;;;;;;10.30;9.30;;;10.80;60.10;;;9.81;62.81;98398.50;5082652;28;20521;-80
2022/04/30 01:45:07;;;;;;;9.43;8.63;;;10.90;59.50;;;9.68;62.64;98399.28;5073621;28;20560;-74
2022/04/30 01:47:38;;;;;;;10.43;9.47;;;10.80;59.60;;;9.66;63.03;98396.75;5080332;28;20573;-77
2022/04/30 01:50:07;;;;;;;11.00;9.90;;;10.80;59.70;;;9.62;62.53;98390.09;5068472;28;20476;-79
2022/04/30 01:52:34;;;;;;;10.83;9.00;;;10.80;59.50;;;9.69;63.00;98411.72;5100317;27;20448;-76
2022/04/30 01:55:01;;;;;;;11.37;10.20;;;10.80;59.70;;;9.47;64.62;98393.78;5093160;28;20490;-73
2022/04/30 01:57:30;;;;;;;9.90;9.00;;;10.70;60.10;;;9.35;64.57;98395.34;5110638;28;20465;-79
2022/04/30 01:59:58;;;;;;;9.80;8.90;;;10.50;60.30;;;9.34;64.70;98399.94;5076991;28;20576;-76
2022/04/30 02:02:34;;;;;;;10.50;9.50;;;10.50;60.50;;;9.41;64.44;98394.56;5077987;28;20566;-80
2022/04/30 02:05:05;;;;;;;11.70;9.70;;;10.50;60.80;;;9.41;63.21;98382.94;5074819;28;20462;-77
2022/04/30 02:07:34;;;;;;;10.43;9.50;;;10.50;60.30;;;9.46;64.68;98391.25;5077110;28;20459;-82
2022/04/30 02:10:03;;;;;;;10.60;9.50;;;10.60;60.70;;;9.46;64.55;98380.47;5073311;28;20466;-79
2022/04/30 02:12:33;;;;;;;11.63;10.43;;;10.50;60.40;;;9.40;63.93;98390.22;5091200;28;21038;-78
2022/04/30 02:15:01;;;;;;;11.20;10.10;;;10.60;60.40;;;9.40;64.35;98392.06;5073278;28;20505;-82
2022/04/30 02:17:30;;;;;;;11.03;9.93;;;10.50;60.60;;;9.27;64.58;98371.25;5074939;28;20954;-81
2022/04/30 02:22:46;;;;;;;11.60;9.57;;;10.40;60.80;;;9.17;64.90;98372.44;5079803;28;20459;-76
2022/04/30 02:25:15;;;;;;;10.73;9.67;;;10.40;61.20;;;9.09;65.72;98371.75;5078925;28;21084;-78
2022/04/30 02:27:46;;;;;;;12.00;10.80;;;10.30;61.30;;;9.16;65.19;98372.63;5080972;28;20952;-75
2022/04/30 02:30:17;;;;;;;10.60;9.50;;;10.30;61.60;;;9.11;65.38;98369.69;5077358;28;20875;-78
2022/04/30 02:32:46;;;;;;;11.70;9.83;;;10.30;61.60;;;9.02;65.74;98364.47;5078083;28;20448;-76
2022/04/30 02:35:15;;;;;;;11.57;10.47;;;10.20;61.80;;;8.97;66.18;98363.41;5098759;28;20448;-76
2022/04/30 02:37:45;;;;;;;16.50;10.60;;;10.20;62.20;;;8.96;65.92;98359.84;5094674;28;20468;-77
2022/04/30 02:40:14;;;;;;;10.93;9.87;;;10.10;62.30;;;8.86;66.72;98348.56;5074370;28;20552;-76
2022/04/30 02:42:41;;;;;;;11.43;10.43;;;10.10;62.50;;;8.81;66.29;98357.28;5083038;28;20448;-79
2022/04/30 02:45:11;;;;;;;11.60;10.60;;;10.00;62.70;;;8.58;66.63;98303.63;5076385;28;21000;-75
2022/04/30 02:47:39;;;;;;;11.27;10.30;;;10.10;62.90;;;8.78;66.70;98342.31;5084122;28;20462;-80
2022/04/30 02:50:08;;;;;;;10.93;9.90;;;10.00;62.80;;;8.88;66.62;98357.31;5083818;28;20507;-80
2022/04/30 02:52:35;;;;;;;10.63;9.73;;;10.00;62.90;;;8.76;66.90;98349.78;5088354;28;20468;-79
2022/04/30 02:55:03;;;;;;;11.80;10.67;;;9.90;64.20;;;8.78;66.66;98352.25;5078688;28;21006;-81
2022/04/30 02:59:53;;;;;;;12.03;10.93;;;9.90;64.40;;;8.83;66.79;98343.59;5081275;28;20471;-78
2022/04/30 03:00:28;;;;;;;10.90;10.00;;;9.90;64.70;;;8.76;67.27;98341.69;5099607;28;20464;-76
2022/04/30 03:02:56;;;;;;;11.30;9.90;;;10.00;63.60;;;8.75;66.89;98348.09;5082772;28;20462;-77
2022/04/30 03:05:23;;;;;;;11.73;10.63;;;9.90;64.70;;;8.73;67.04;98334.00;5093545;28;20476;-78
2022/04/30 03:07:53;;;;;;;12.83;10.07;;;9.90;64.90;;;8.77;67.07;98340.66;5077195;28;20448;-74
2022/04/30 03:10:20;;;;;;;11.60;10.60;;;10.00;63.80;;;8.75;67.36;98345.41;5073887;28;20444;-75
2022/04/30 03:12:48;;;;;;;10.70;9.80;;;9.90;65.20;;;8.62;67.56;98339.91;5075850;28;20900;-81
2022/04/30 03:15:17;;;;;;;11.47;10.27;;;9.80;65.10;;;8.66;67.70;98333.09;5074423;28;21138;-80
2022/04/30 03:23:16;;;;;;;11.70;10.50;;;9.80;65.80;;;8.72;67.61;98329.66;5083389;28;20452;-78
2022/04/30 03:25:44;;;;;;;11.90;10.80;;;9.90;65.80;;;8.67;67.11;98317.78;5082859;28;20785;-79
2022/04/30 03:28:11;;;;;;;11.77;10.70;;;9.90;65.70;;;8.63;67.30;98315.47;5085939;28;20475;-78
2022/04/30 03:30:38;;;;;;;11.63;10.60;;;9.90;65.70;;;8.74;66.97;98324.88;5087563;28;20802;-75
2022/04/30 03:33:08;;;;;;;11.00;10.10;;;9.90;65.80;;;8.64;67.77;98308.22;5113422;28;20937;-76
2022/04/30 03:35:38;;;;;;;11.00;9.90;;;9.90;66.10;;;8.66;67.22;98322.34;5086834;28;20443;-77
2022/04/30 03:38:06;;;;;;;10.10;9.10;;;9.90;65.90;;;8.62;67.58;98327.25;5078614;28;20468;-78
2022/04/30 03:40:34;;;;;;;12.60;11.20;;;9.90;66.00;;;8.49;68.25;98322.59;5088933;28;20578;-79
2022/04/30 03:43:01;;;;;;;11.80;10.63;;;9.80;66.30;;;8.57;67.51;98326.19;5093018;28;20458;-80
2022/04/30 03:45:28;;;;;;;12.00;11.03;;;9.70;66.30;;;8.57;67.93;98323.50;5073356;28;20538;-81
2022/04/30 03:47:55;;;;;;;11.60;10.47;;;9.70;66.40;;;8.62;67.72;98323.75;5084559;28;20459;-76
2022/04/30 03:50:24;;;;;;;11.40;10.40;;;9.70;66.50;;;8.54;67.47;98321.19;5079407;28;20476;-80
2022/04/30 03:52:50;;;;;;;12.07;10.87;;;9.70;66.60;;;8.60;68.11;98317.75;5077416;28;20546;-73
2022/04/30 03:55:17;;;;;;;11.67;9.60;;;9.80;67.10;;;8.64;67.73;98316.31;5079153;28;20455;-80
2022/04/30 03:57:45;;;;;;;12.50;10.80;;;9.80;66.60;;;8.45;68.04;98298.94;5086102;28;20536;-81
2022/04/30 04:00:14;;;;;;;12.60;10.50;;;9.80;66.80;;;8.63;67.71;98320.03;5096826;27;20455;-76
2022/04/30 04:02:41;;;;;;;12.93;10.70;;;9.80;66.70;;;8.64;67.92;98313.63;5080002;28;20971;-76
2022/04/30 04:05:12;;;;;;;10.87;9.87;;;9.80;66.60;;;8.60;67.83;98312.34;5082851;28;20479;-82
2022/04/30 04:07:40;;;;;;;12.00;10.40;;;9.80;66.80;;;8.59;68.30;98305.31;5082397;28;20464;-76
2022/04/30 04:10:09;;;;;;;12.00;10.40;;;9.80;66.90;;;8.60;67.85;98313.16;5080790;28;20554;-81
2022/04/30 04:12:36;;;;;;;11.60;10.50;;;9.80;66.90;;;8.54;68.08;98303.19;5084228;28;20482;-82
2022/04/30 04:17:49;;;;;;;11.73;10.70;;;9.70;66.90;;;8.55;67.75;98302.16;5080308;28;20448;-79
2022/04/30 04:20:17;;;;;;;10.97;10.07;;;9.70;66.80;;;8.58;67.82;98303.63;5085781;28;20538;-77
2022/04/30 04:22:46;;;;;;;12.13;11.03;;;9.70;66.80;;;8.57;67.52;98302.78;5079628;28;20433;-78
2022/04/30 04:27:58;;;;;;;11.77;10.67;;;9.80;67.20;;;8.60;67.39;98312.34;5089500;28;20467;-78
2022/04/30 04:30:28;;;;;;;11.90;10.83;;;9.80;67.00;;;8.62;67.75;98315.69;5088037;28;20489;-76
2022/04/30 04:32:56;;;;;;;11.13;10.13;;;9.80;66.70;;;8.56;67.72;98314.59;5083683;28;20524;-80
2022/04/30 04:35:24;;;;;;;11.60;10.60;;;9.80;66.90;;;8.66;67.23;98308.84;5083485;28;20534;-80
2022/04/30 04:37:53;;;;;;;11.47;10.37;;;9.80;67.00;;;8.76;66.78;98312.06;5078930;28;20672;-83
2022/04/30 04:40:20;;;;;;;12.17;11.00;;;9.90;66.60;;;8.73;67.02;98311.59;5078681;28;20460;-78
2022/04/30 04:42:48;;;;;;;12.17;10.97;;;9.90;66.50;;;8.76;66.93;98317.44;5080687;28;20505;-80
2022/04/30 04:45:15;;;;;;;11.60;10.03;;;10.00;65.40;;;8.79;66.90;98317.03;5098342;28;20503;-78
2022/04/30 04:47:49;;;;;;;11.00;10.00;;;10.00;65.50;;;8.84;66.36;98315.63;5092064;28;20531;-83
2022/04/30 04:50:17;;;;;;;12.53;11.33;;;10.00;65.30;;;8.88;66.15;98303.44;5106433;27;20504;-71
2022/04/30 04:52:44;;;;;;;11.70;10.43;;;10.10;65.30;;;8.86;66.75;98302.78;5083419;28;20452;-81
2022/04/30 04:55:13;;;;;;;12.10;11.00;;;10.10;65.30;;;8.95;66.44;98314.22;5077560;28;20447;-77
2022/04/30 04:57:41;;;;;;;11.60;10.40;;;10.20;65.20;;;9.09;65.79;98309.75;5085229;28;20449;-73
2022/04/30 05:00:11;;;;;;;10.80;9.70;;;10.20;65.00;;;9.18;65.74;98314.78;5106266;28;20440;-77
2022/04/30 05:02:38;;;;;;;12.50;11.30;;;10.30;64.90;;;9.19;66.17;98319.16;5088690;28;20467;-72
2022/04/30 05:05:07;;;;;;;10.77;9.83;;;10.40;64.80;;;9.25;65.38;98320.22;5080857;28;20524;-77
2022/04/30 05:07:34;;;;;;;14.70;10.90;;;10.40;64.60;;;9.21;65.10;98327.06;5075609;28;20525;-82
2022/04/30 05:10:01;;;;;;;13.73;10.70;;;10.40;64.50;;;9.21;65.45;98319.78;5081906;28;20565;-75
2022/04/30 05:12:30;;;;;;;10.07;9.27;;;10.40;64.30;;;9.33;64.90;98321.91;5079393;28;20458;-80
2022/04/30 05:14:57;;;;;;;12.07;10.70;;;10.50;64.30;;;9.41;64.81;98326.31;5078952;28;20504;-74
2022/04/30 05:17:23;;;;;;;11.10;10.20;;;10.60;64.20;;;9.53;63.84;98324.72;5079982;28;20622;-77
2022/04/30 05:19:50;;;;;;;11.47;10.30;;;10.70;63.80;;;9.53;64.04;98321.16;5080580;28;20505;-75
2022/04/30 05:22:18;;;;;;;11.27;10.27;;;10.70;63.60;;;9.63;63.79;98329.72;5081369;28;20443;-76
2022/04/30 05:24:45;;;;;;;12.20;9.97;;;10.80;63.50;;;9.78;63.81;98332.25;5085576;28;20496;-75
2022/04/30 05:27:12;;;;;;;11.37;10.20;;;10.90;63.30;;;9.90;62.98;98337.91;5082800;28;20543;-79
2022/04/30 05:29:41;;;;;;;11.60;10.50;;;11.00;63.10;;;9.97;62.56;98319.84;5072642;28;20837;-77
2022/04/30 05:32:08;;;;;;;11.40;10.20;;;11.20;62.70;;;10.05;62.23;98341.28;5088080;28;20528;-77
2022/04/30 05:34:37;;;;;;;10.47;9.50;;;11.30;62.50;;;9.97;62.01;98348.72;5075259;28;20516;-77
2022/04/30 05:37:04;;;;;;;10.50;9.60;;;11.20;62.10;;;10.15;61.87;98345.44;5079658;28;20551;-75
2022/04/30 05:39:31;;;;;;;10.70;9.80;;;11.40;62.30;;;10.46;60.74;98336.78;5083527;28;20497;-81
2022/04/30 05:41:58;;;;;;;11.53;10.30;;;11.60;61.80;;;10.77;60.39;98348.84;5082972;28;20633;-76
2022/04/30 05:44:25;;;;;;;11.10;9.97;;;11.90;61.50;;;10.87;60.31;98348.41;5073070;28;20519;-73
2022/04/30 05:46:53;;;;;;;11.10;10.10;;;12.00;61.10;;;10.83;59.84;98351.75;5074351;28;20470;-75
2022/04/30 05:49:20;;;;;;;10.23;9.30;;;12.00;60.60;;;10.85;59.81;98334.28;5076677;28;20468;-82
2022/04/30 05:51:47;;;;;;;11.20;10.10;;;12.00;60.90;;;11.34;58.91;98355.63;5076655;28;20512;-75
2022/04/30 05:54:14;;;;;;;11.67;10.13;;;12.30;60.60;;;11.44;58.07;98360.59;5101116;27;20786;-76
2022/04/30 05:56:41;;;;;;;10.97;9.97;;;12.50;60.20;;;11.33;58.58;98357.50;5072482;28;20583;-73
2022/04/30 05:59:08;;;;;;;10.73;9.60;;;12.50;59.80;;;11.37;58.15;98362.50;5089322;28;20593;-74
2022/04/30 06:01:35;;;;;;;10.20;9.30;;;12.50;59.10;;;11.02;59.05;98371.69;5078031;28;20463;-72
2022/04/30 06:04:04;;;;;;;11.17;9.83;;;12.40;59.40;;;11.25;58.55;98376.66;5067988;28;20473;-74
2022/04/30 06:06:31;;;;;;;10.33;9.37;;;12.40;59.60;;;11.70;57.19;98380.50;5081332;28;20487;-76
2022/04/30 06:08:58;;;;;;;10.50;9.40;;;12.60;59.10;;;11.93;56.14;98392.69;5079557;28;20520;-71
2022/04/30 06:11:26;;;;;;;9.70;8.90;;;12.80;58.70;;;12.00;55.75;98391.63;5077246;28;20457;-75
2022/04/30 06:13:53;;;;;;;9.63;8.87;;;13.00;58.30;;;12.14;55.63;98394.31;5082833;28;20451;-70
2022/04/30 06:16:20;;;;;;;9.90;9.10;;;13.00;58.20;;;12.36;55.37;98389.38;5077921;28;20456;-70
2022/04/30 06:18:46;;;;;;;11.87;9.67;;;13.20;57.90;;;12.63;54.14;98385.66;5084975;28;20512;-71
2022/04/30 06:21:15;;;;;;;9.87;8.87;;;13.60;57.50;;;12.94;53.85;98389.38;5083103;28;20448;-72
2022/04/30 06:23:42;;;;;;;11.73;10.57;;;13.90;57.30;;;13.52;51.49;98387.41;5080180;28;20454;-70
2022/04/30 06:26:08;;;;;;;11.53;9.83;;;14.30;56.00;;;13.78;50.79;98386.25;5076142;28;20443;-71
2022/04/30 06:28:35;;;;;;;10.30;9.20;;;14.70;55.60;;;13.99;49.94;98386.81;5084235;28;21053;-71
2022/04/30 06:31:02;;;;;;;9.93;9.10;;;14.90;54.80;;;13.88;51.11;98397.41;5083585;28;20602;-71
2022/04/30 06:33:29;;;;;;;10.17;9.23;;;15.00;55.10;;;13.35;52.29;98339.13;5082295;28;20474;-73
2022/04/30 06:35:56;;;;;;;10.80;9.80;;;15.00;55.80;;;13.87;51.72;98401.16;5074403;28;20537;-74
2022/04/30 06:38:25;;;;;;;11.30;10.40;;;14.90;55.60;;;13.93;51.96;98388.56;5075827;28;20450;-73
2022/04/30 06:40:52;;;;;;;11.30;10.30;;;15.00;55.80;;;13.74;52.18;98395.91;5078261;28;20639;-72
2022/04/30 06:43:19;;;;;;;10.50;9.60;;;14.90;55.60;;;14.05;51.31;98388.66;5079992;28;20530;-77
2022/04/30 06:45:46;;;;;;;11.00;9.67;;;15.00;55.90;;;14.36;50.92;98384.03;5079312;28;20935;-74
2022/04/30 06:48:13;;;;;;;10.37;9.37;;;15.30;55.30;;;14.51;48.98;98399.09;5086067;28;20562;-73
2022/04/30 06:50:40;;;;;;;10.80;9.80;;;15.60;53.90;;;14.34;51.24;98394.31;5100943;27;21081;-75
2022/04/30 06:58:50;;;;;;;10.13;9.20;;;15.80;53.70;;;14.81;49.37;98398.25;5083330;28;20450;-73
2022/04/30 07:01:38;;;;;;;9.60;8.90;;;15.80;54.00;;;14.45;48.89;98344.56;5082221;27;20453;-77
2022/04/30 07:04:06;;;;;;;11.10;9.60;;;15.80;53.70;;;14.75;49.40;98402.72;5082070;28;20953;-74
2022/04/30 07:06:34;;;;;;;10.60;9.37;;;15.80;53.80;;;15.11;48.54;98395.44;5080369;28;20459;-76
2022/04/30 07:09:03;;;;;;;10.10;8.97;;;16.00;53.60;;;15.11;48.53;98405.50;5084541;28;20458;-75
2022/04/30 07:11:31;;;;;;;9.60;8.77;;;16.00;53.20;;;15.08;48.10;98405.94;5079484;28;20576;-75
2022/04/30 07:13:59;;;;;;;9.90;8.90;;;16.20;52.90;;;14.84;48.04;98403.22;5079830;28;20467;-75
2022/04/30 07:16:26;;;;;;;10.33;9.00;;;16.00;52.40;;;15.20;48.26;98405.97;5077416;28;20456;-76
2022/04/30 07:18:53;;;;;;;10.37;9.33;;;16.00;53.10;;;15.29;48.48;98399.94;5083077;28;20531;-76
2022/04/30 07:21:21;;;;;;;9.70;8.70;;;16.10;53.30;;;15.08;48.22;98395.91;5099358;28;20444;-74
2022/04/30 07:23:48;;;;;;;9.77;8.77;;;16.20;52.70;;;14.97;48.36;98397.56;5089324;28;21049;-76
2022/04/30 07:26:16;;;;;;;9.07;8.17;;;16.10;52.60;;;15.41;48.12;98385.50;5077051;28;20459;-76
2022/04/30 07:28:46;;;;;;;9.53;8.70;;;16.20;52.90;;;15.72;46.78;98395.16;5082106;28;20579;-75
2022/04/30 07:31:13;;;;;;;9.00;8.20;;;16.40;52.60;;;15.81;46.55;98398.34;5084170;28;20571;-72
2022/04/30 07:33:40;;;;;;;8.63;7.80;;;16.60;52.30;;;15.86;46.32;98400.34;5082030;28;20945;-77
2022/04/30 07:36:08;;;;;;;11.40;8.90;;;16.70;52.20;;;15.65;46.83;98399.06;5077124;28;20858;-76
2022/04/30 07:38:35;;;;;;;10.37;9.27;;;16.60;52.00;;;15.76;45.82;98403.69;5082034;28;20537;-74
2022/04/30 07:41:02;;;;;;;11.37;8.63;;;16.80;51.90;;;16.24;43.21;98398.13;5083185;28;20471;-76
2022/04/30 07:43:29;;;;;;;10.20;9.27;;;17.10;50.00;;;15.53;44.69;98399.91;5085778;28;20469;-79
2022/04/30 07:45:57;;;;;;;9.43;8.73;;;16.70;49.80;;;16.03;43.97;98397.72;5081178;28;20505;-76
2022/04/30 07:48:24;;;;;;;9.20;8.40;;;16.80;50.10;;;16.59;43.23;98388.94;5083123;28;20943;-75
2022/04/30 07:50:57;;;;;;;9.70;8.80;;;17.20;50.10;;;16.15;43.10;98400.41;5075018;28;20560;-76
2022/04/30 07:53:24;;;;;;;10.60;9.50;;;17.20;49.20;;;15.98;44.01;98376.66;5084011;28;20455;-73
2022/04/30 07:55:53;;;;;;;9.93;8.93;;;17.00;49.40;;;16.19;44.52;98398.03;5079292;28;20579;-75
2022/04/30 07:58:20;;;;;;;10.33;9.00;;;17.00;49.70;;;16.27;43.89;98398.47;5094694;28;20691;-75
2022/04/30 08:00:47;;;;;;;10.13;9.27;;;17.10;49.90;;;16.04;43.59;98399.38;5078675;28;20453;-79
2022/04/30 08:03:15;;;;;;;10.90;9.30;;;17.10;49.10;;;16.34;43.44;98394.75;5084664;28;20538;-76
2022/04/30 08:05:42;;;;;;;9.23;8.53;;;17.20;49.50;;;16.24;43.70;98370.84;5082768;28;20569;-75
2022/04/30 08:08:09;;;;;;;10.03;9.17;;;17.30;49.40;;;16.70;43.03;98398.97;5083676;28;20558;-76
2022/04/30 08:10:36;;;;;;;9.43;8.53;;;17.60;49.60;;;16.76;42.67;98383.50;5079768;28;20471;-79
2022/04/30 08:13:03;;;;;;;9.67;8.67;;;17.80;49.20;;;16.58;43.05;98392.72;5075860;28;20477;-73
2022/04/30 08:15:30;;;;;;;9.17;8.17;;;17.60;49.00;;;17.02;42.40;98391.31;5078902;28;20499;-78
2022/04/30 08:17:57;;;;;;;9.43;8.73;;;17.80;49.10;;;17.28;41.80;98387.91;5083494;28;20517;-78
2022/04/30 08:20:25;;;;;;;8.97;8.07;;;18.10;48.80;;;17.02;42.34;98381.22;5079546;28;20800;-82
2022/04/30 08:22:52;;;;;;;9.53;8.13;;;18.00;48.70;;;17.04;42.09;98368.16;5084731;28;20465;-82
2022/04/30 08:25:19;;;;;;;9.83;9.03;;;18.00;48.60;;;17.22;41.50;98372.53;5080579;28;20530;-80
2022/04/30 08:27:46;;;;;;;8.83;8.03;;;18.10;48.30;;;17.28;41.97;98379.72;5081708;28;20547;-81
2022/04/30 08:30:13;;;;;;;10.00;9.00;;;18.20;48.70;;;17.59;40.79;98375.75;5079752;28;20475;-74
2022/04/30 08:32:40;;;;;;;9.53;8.63;;;18.40;48.30;;;17.48;40.94;98372.88;5082319;28;21048;-79
2022/04/30 08:35:08;;;;;;;9.67;8.87;;;18.40;47.80;;;16.67;42.00;98377.63;5081150;28;20921;-78
2022/04/30 08:37:37;;;;;;;9.50;8.60;;;18.10;47.40;;;17.07;40.98;98383.22;5083034;28;20523;-76
2022/04/30 08:40:05;;;;;;;9.50;8.70;;;18.00;47.70;;;17.06;41.61;98378.81;5082573;28;20462;-82
2022/04/30 08:42:32;;;;;;;8.87;8.07;;;18.10;47.80;;;16.32;40.63;98340.50;5081037;28;20448;-79
2022/04/30 08:45:02;;;;;;;10.00;9.10;;;17.80;46.80;;;16.13;42.20;98378.84;5085886;28;21276;-77
2022/04/30 08:47:31;;;;;;;9.33;8.10;;;17.40;47.10;;;16.53;41.62;98387.19;5079546;28;20569;-76
2022/04/30 08:50:02;;;;;;;10.17;9.00;;;17.60;47.30;;;16.93;39.89;98378.06;5080467;28;20567;-77
2022/04/30 08:52:29;;;;;;;10.87;9.73;;;17.80;46.80;;;16.65;40.28;98377.06;5080523;28;20452;-76
2022/04/30 08:54:57;;;;;;;9.90;8.90;;;17.60;46.10;;;17.47;38.67;98375.88;5082241;28;20565;-77
2022/04/30 08:57:25;;;;;;;9.20;7.87;;;18.10;46.10;;;18.03;38.57;98367.59;5080902;28;20475;-79
2022/04/30 08:59:52;;;;;;;10.83;9.83;;;18.70;47.10;;;17.58;39.55;98376.84;5076796;28;20542;-78
2022/04/30 09:02:19;;;;;;;9.60;8.70;;;18.50;46.10;;;17.77;38.55;98375.44;5077602;28;20459;-80
2022/04/30 09:04:49;;;;;;;9.47;8.47;;;18.70;45.70;;;17.70;38.72;98364.69;5073696;28;21023;-77
2022/04/30 09:07:19;;;;;;;9.80;8.90;;;18.60;45.60;;;17.94;37.93;98369.09;5081849;28;20455;-78
2022/04/30 09:09:55;;;;;;;9.33;8.23;;;18.90;45.50;;;18.57;37.25;98367.88;5089366;28;20457;-77
2022/04/30 09:12:24;;;;;;;10.30;9.30;;;19.20;45.40;;;18.61;35.48;98371.72;5099425;27;20542;-76
2022/04/30 09:14:52;;;;;;;13.30;8.90;;;19.30;44.20;;;18.88;35.23;98376.34;5099816;27;20484;-80
2022/04/30 09:17:22;;;;;;;11.40;8.87;;;19.60;44.40;;;18.59;35.43;98369.25;5084302;28;20455;-79
2022/04/30 09:19:52;;;;;;;9.00;8.10;;;19.60;44.00;;;18.34;35.71;98373.41;5081373;28;20532;-82
2022/04/30 09:22:31;;;;;;;9.53;8.47;;;19.40;43.70;;;17.22;38.22;98368.97;5087477;28;20499;-75
2022/04/30 09:25:00;;;;;;;13.50;9.40;;;18.70;44.10;;;17.09;38.84;98365.50;5071061;28;20580;-82
2022/04/30 09:27:29;;;;;;;13.10;9.40;;;18.20;44.90;;;18.23;37.06;98361.53;5080971;28;20455;-79
2022/04/30 09:29:57;;;;;;;9.40;8.60;;;18.70;44.80;;;18.73;36.31;98374.28;5078362;28;20455;-82
2022/04/30 09:32:26;;;;;;;9.73;8.80;;;19.30;44.90;;;17.63;36.78;98335.91;5082685;28;20460;-77
2022/04/30 09:37:42;;;;;;;9.37;8.57;;;19.30;44.30;;;17.92;36.53;98316.59;5091122;28;20456;-77
2022/04/30 09:40:19;;;;;;;9.13;8.33;;;19.10;44.20;;;18.36;37.33;98357.53;5096376;28;20448;-75
2022/04/30 09:42:48;;;;;;;9.07;8.30;;;19.30;44.40;;;18.43;36.31;98353.78;5087532;28;20479;-76
2022/04/30 09:45:30;;;;;;;9.70;8.77;;;19.30;44.10;;;19.33;35.32;98355.03;5087323;28;20450;-74
2022/04/30 09:48:00;;;;;;;9.80;8.80;;;19.80;44.50;;;19.23;34.47;98353.91;5100734;28;20480;-77
2022/04/30 09:56:07;;;;;;;8.93;8.13;;;19.90;43.50;;;19.59;34.45;98341.50;5092457;28;20544;-74
2022/04/30 09:58:42;;;;;;;11.00;8.80;;;20.20;43.60;;;18.78;35.24;98336.03;5086770;28;20448;-75
2022/04/30 10:01:13;;;;;;;11.00;10.00;;;20.10;43.20;;;19.17;34.80;98335.78;5082974;28;20439;-74
2022/04/30 10:03:43;;;;;;;9.23;8.43;;;20.00;43.30;;;19.18;35.00;98331.94;5083098;28;20456;-75
2022/04/30 10:06:11;;;;;;;9.77;8.80;;;19.90;43.50;;;19.70;34.07;98332.22;5083350;28;20447;-74
2022/04/30 10:08:41;;;;;;;10.70;9.80;;;20.30;43.70;;;19.63;34.59;98334.38;5093011;28;20461;-79
2022/04/30 10:11:22;;;;;;;10.20;9.03;;;20.40;43.60;;;19.56;36.32;98336.53;5080822;28;20482;-76
2022/04/30 10:14:08;;;;;;;11.37;10.17;;;20.30;44.60;;;19.77;35.45;98338.28;5077307;28;20527;-75
2022/04/30 10:16:36;;;;;;;11.33;10.23;;;20.40;44.30;;;19.67;34.23;98339.06;5088526;28;20466;-77
2022/04/30 10:19:14;;;;;;;11.37;10.27;;;20.50;43.60;;;19.40;34.87;98336.47;5084757;28;20475;-75
2022/04/30 10:21:42;;;;;;;12.20;11.00;;;20.30;43.50;;;19.59;34.69;98333.25;5086869;28;20454;-76
2022/04/30 10:24:12;;;;;;;9.80;8.90;;;20.50;43.80;;;19.88;35.08;98330.09;5090499;28;20550;-76
2022/04/30 10:26:58;;;;;;;10.67;9.77;;;20.60;44.20;;;20.15;33.70;98331.84;5091196;28;21210;-76
2022/04/30 10:29:27;;;;;;;11.20;10.30;;;20.80;43.60;;;19.78;34.44;98323.47;5085117;28;20479;-80
2022/04/30 10:31:54;;;;;;;12.10;10.53;;;20.70;43.60;;;19.11;35.33;98320.41;5084331;28;20561;-78
2022/04/30 10:34:30;;;;;;;12.30;11.07;;;20.20;43.30;;;19.11;35.93;98328.63;5084109;28;20541;-74
2022/04/30 10:37:01;;;;;;;11.30;10.10;;;20.00;43.70;;;19.18;36.05;98299.09;5093105;28;20443;-76
2022/04/30 10:39:28;;;;;;;10.43;9.53;;;20.10;44.40;;;19.70;35.20;98326.75;5084925;28;20463;-79
2022/04/30 10:41:55;;;;;;;9.90;8.93;;;20.30;43.80;;;19.71;34.45;98324.81;5104140;28;20455;-77
2022/04/30 10:44:33;;;;;;;10.70;9.80;;;20.60;43.50;;;20.00;34.60;98327.97;5078207;28;20488;-75
2022/04/30 10:47:12;;;;;;;11.17;10.17;;;20.70;43.60;;;19.59;34.98;98325.03;5088905;28;20521;-77
2022/04/30 10:49:39;;;;;;;10.57;9.67;;;20.50;43.30;;;19.78;35.05;98320.72;5086925;28;20453;-75
2022/04/30 10:52:10;;;;;;;10.67;9.73;;;20.60;43.90;;;19.87;34.67;98325.69;5082607;28;20494;-75
2022/04/30 10:54:41;;;;;;;12.47;10.00;;;20.60;43.20;;;19.22;34.99;98319.41;5083639;28;20447;-77
2022/04/30 10:57:09;;;;;;;10.97;9.93;;;20.50;42.90;;;19.60;34.49;98313.81;5084476;28;20455;-73